createdAt,value
2019-04-26T00:00:57.361Z,51
2019-04-26T00:02:00.174Z,51
2019-04-26T00:03:02.676Z,51
2019-04-26T00:04:05.159Z,51
2019-04-26T00:05:10.639Z,51
2019-04-26T00:06:17.012Z,52
2019-04-26T00:07:20.927Z,53
2019-04-26T00:08:23.386Z,52
2019-04-26T00:09:25.619Z,52
2019-04-26T00:10:28.623Z,52
2019-04-26T00:11:31.031Z,52
2019-04-26T00:12:33.700Z,53
2019-04-26T00:13:36.786Z,52
2019-04-26T00:14:39.436Z,52
2019-04-26T00:15:42.180Z,52
2019-04-26T00:16:44.793Z,52
2019-04-26T00:17:46.981Z,52
2019-04-26T00:18:49.235Z,52
2019-04-26T00:19:52.007Z,52
2019-04-26T00:20:54.767Z,52
2019-04-26T00:21:57.498Z,52
2019-04-26T00:23:00.229Z,52
2019-04-26T00:24:02.970Z,52
2019-04-26T00:25:05.685Z,52
2019-04-26T00:26:07.926Z,52
2019-04-26T00:27:13.098Z,52
2019-04-26T00:28:16.837Z,52
2019-04-26T00:29:19.889Z,52
2019-04-26T00:30:23.152Z,53
2019-04-26T00:31:25.664Z,53
2019-04-26T00:32:28.138Z,53
2019-04-26T00:33:30.756Z,53
2019-04-26T00:34:33.005Z,53
2019-04-26T00:35:48.840Z,52
2019-04-26T00:36:51.065Z,52
2019-04-26T00:37:53.500Z,52
2019-04-26T00:38:55.752Z,53
2019-04-26T00:39:57.916Z,52
2019-04-26T00:41:00.155Z,53
2019-04-26T00:42:02.352Z,52
2019-04-26T00:43:04.518Z,52
2019-04-26T00:44:06.752Z,53
2019-04-26T00:45:08.916Z,54
2019-04-26T00:46:11.155Z,53
2019-04-26T00:47:17.136Z,53
2019-04-26T00:48:21.017Z,53
2019-04-26T00:49:24.190Z,54
2019-04-26T00:50:26.389Z,54
2019-04-26T00:51:28.606Z,54
2019-04-26T00:52:31.329Z,54
2019-04-26T00:53:33.695Z,54
2019-04-26T00:54:35.851Z,54
2019-04-26T00:55:38.328Z,54
2019-04-26T00:56:40.624Z,54
2019-04-26T00:57:42.795Z,55
2019-04-26T00:58:45.367Z,55
2019-04-26T00:59:47.577Z,55
2019-04-26T01:00:50.222Z,54
2019-04-26T01:01:52.669Z,55
2019-04-26T01:02:55.452Z,54
2019-04-26T01:03:57.668Z,55
2019-04-26T01:04:59.969Z,55
2019-04-26T01:06:02.235Z,55
2019-04-26T01:07:04.675Z,54
2019-04-26T01:08:07.119Z,55
2019-04-26T01:09:09.272Z,55
2019-04-26T01:10:11.446Z,54
2019-04-26T01:11:13.619Z,55
2019-04-26T01:12:18.438Z,55
2019-04-26T01:13:22.188Z,55
2019-04-26T01:14:26.394Z,55
2019-04-26T01:15:28.834Z,55
2019-04-26T01:16:31.019Z,55
2019-04-26T01:17:33.163Z,55
2019-04-26T01:18:35.378Z,55
2019-04-26T01:19:37.535Z,55
2019-04-26T01:20:39.719Z,55
2019-04-26T01:21:41.880Z,55
2019-04-26T01:22:44.027Z,56
2019-04-26T01:23:46.236Z,56
2019-04-26T01:24:48.383Z,56
2019-04-26T01:25:50.587Z,56
2019-04-26T01:26:52.717Z,56
2019-04-26T01:27:54.916Z,56
2019-04-26T01:28:57.111Z,55
2019-04-26T01:29:59.342Z,56
2019-04-26T01:31:01.571Z,56
2019-04-26T01:32:03.982Z,56
2019-04-26T01:33:06.129Z,57
2019-04-26T01:36:46.838Z,56
2019-04-26T01:37:49.021Z,56
2019-04-26T01:38:51.270Z,56
2019-04-26T01:39:53.442Z,57
2019-04-26T01:40:55.688Z,57
2019-04-26T01:41:58.104Z,57
2019-04-26T01:43:00.268Z,57
2019-04-26T01:44:02.578Z,57
2019-04-26T01:45:05.039Z,57
2019-04-26T01:46:07.303Z,57
2019-04-26T01:47:09.455Z,57
2019-04-26T01:48:11.640Z,57
2019-04-26T01:49:13.883Z,57
2019-04-26T01:50:16.053Z,58
2019-04-26T01:51:18.305Z,58
2019-04-26T01:52:23.674Z,57
2019-04-26T01:53:27.496Z,58
2019-04-26T01:54:31.860Z,57
2019-04-26T01:55:34.382Z,57
2019-04-26T01:56:36.624Z,57
2019-04-26T01:57:38.814Z,58
2019-04-26T01:58:41.062Z,58
2019-04-26T01:59:43.230Z,58
2019-04-26T02:00:45.704Z,58
2019-04-26T02:01:47.814Z,58
2019-04-26T02:02:50.008Z,58
2019-04-26T02:03:52.185Z,58
2019-04-26T02:04:54.352Z,58
2019-04-26T02:05:56.531Z,58
2019-04-26T02:06:58.696Z,58
2019-04-26T02:08:00.881Z,58
2019-04-26T02:09:03.126Z,58
2019-04-26T02:10:05.375Z,57
2019-04-26T02:11:07.590Z,58
2019-04-26T02:12:10.064Z,58
2019-04-26T02:13:12.236Z,58
2019-04-26T02:14:14.470Z,58
2019-04-26T02:15:16.917Z,58
2019-04-26T02:16:19.136Z,58
2019-04-26T02:17:21.647Z,58
2019-04-26T02:18:27.917Z,58
2019-04-26T02:19:31.549Z,59
2019-04-26T02:20:34.819Z,58
2019-04-26T02:21:37.189Z,59
2019-04-26T02:22:39.461Z,59
2019-04-26T02:23:41.999Z,59
2019-04-26T02:24:44.934Z,59
2019-04-26T02:25:47.563Z,59
2019-04-26T02:26:49.872Z,59
2019-04-26T02:27:52.123Z,59
2019-04-26T02:28:54.760Z,59
2019-04-26T02:29:57.299Z,59
2019-04-26T02:30:59.654Z,60
2019-04-26T02:32:02.014Z,60
2019-04-26T02:33:04.593Z,60
2019-04-26T02:34:06.950Z,60
2019-04-26T02:35:09.265Z,60
2019-04-26T02:36:11.510Z,59
2019-04-26T02:37:14.461Z,59
2019-04-26T02:38:17.309Z,60
2019-04-26T02:39:20.524Z,60
2019-04-26T02:40:23.449Z,60
2019-04-26T02:41:35.641Z,60
2019-04-26T02:42:39.659Z,60
2019-04-26T02:43:42.013Z,60
2019-04-26T02:44:44.557Z,60
2019-04-26T02:45:47.523Z,60
2019-04-26T02:46:50.205Z,60
2019-04-26T02:47:52.473Z,61
2019-04-26T02:48:54.763Z,60
2019-04-26T02:49:57.090Z,61
2019-04-26T02:50:59.588Z,60
2019-04-26T02:52:03.264Z,60
2019-04-26T02:53:05.568Z,60
2019-04-26T02:54:07.915Z,60
2019-04-26T02:55:10.569Z,60
2019-04-26T02:56:13.629Z,60
2019-04-26T02:57:16.467Z,60
2019-04-26T02:58:19.240Z,60
2019-04-26T02:59:21.503Z,60
2019-04-26T03:00:24.273Z,61
2019-04-26T03:01:31.779Z,60
2019-04-26T03:02:41.459Z,60
2019-04-26T03:03:43.725Z,60
2019-04-26T03:04:46.029Z,60
2019-04-26T03:05:48.262Z,60
2019-04-26T03:07:05.423Z,60
2019-04-26T03:08:08.015Z,60
2019-04-26T03:09:10.623Z,60
2019-04-26T03:10:13.340Z,61
2019-04-26T03:11:19.034Z,60
2019-04-26T03:12:22.326Z,61
2019-04-26T03:13:24.878Z,61
2019-04-26T03:14:27.494Z,61
2019-04-26T03:15:38.877Z,61
2019-04-26T03:16:43.774Z,60
2019-04-26T03:17:46.695Z,61
2019-04-26T03:18:49.356Z,61
2019-04-26T03:19:52.342Z,60
2019-04-26T03:20:54.950Z,60
2019-04-26T03:21:57.214Z,60
2019-04-26T03:22:59.813Z,61
2019-04-26T03:24:02.398Z,61
2019-04-26T03:25:04.898Z,61
2019-04-26T03:26:07.382Z,60
2019-04-26T03:27:10.485Z,60
2019-04-26T03:28:12.682Z,60
2019-04-26T03:29:14.933Z,60
2019-04-26T03:30:24.560Z,60
2019-04-26T03:31:26.797Z,61
2019-04-26T03:32:29.388Z,60
2019-04-26T03:33:55.715Z,61
2019-04-26T03:34:58.791Z,60
2019-04-26T03:36:01.235Z,60
2019-04-26T03:37:22.574Z,61
2019-04-26T03:38:25.340Z,60
2019-04-26T03:39:28.008Z,61
2019-04-26T03:40:30.186Z,60
2019-04-26T03:41:42.819Z,60
2019-04-26T03:42:47.252Z,61
2019-04-26T03:43:49.950Z,61
2019-04-26T03:44:52.518Z,61
2019-04-26T03:45:54.767Z,61
2019-04-26T03:46:57.416Z,61
2019-04-26T03:47:59.903Z,61
2019-04-26T03:49:02.191Z,61
2019-04-26T03:50:04.377Z,60
2019-04-26T03:51:06.913Z,61
2019-04-26T03:52:09.358Z,60
2019-04-26T03:53:11.839Z,61
2019-04-26T03:54:14.065Z,61
2019-04-26T03:55:16.668Z,61
2019-04-26T03:56:19.266Z,61
2019-04-26T03:57:22.110Z,61
2019-04-26T03:58:24.393Z,61
2019-04-26T03:59:26.927Z,60
2019-04-26T04:00:29.418Z,61
2019-04-26T04:01:31.990Z,61
2019-04-26T04:02:41.318Z,61
2019-04-26T04:03:48.876Z,61
2019-04-26T04:04:51.388Z,61
2019-04-26T04:05:53.975Z,60
2019-04-26T04:07:06.236Z,61
2019-04-26T04:08:08.438Z,61
2019-04-26T04:09:10.964Z,60
2019-04-26T04:10:13.201Z,61
2019-04-26T04:11:16.041Z,60
2019-04-26T04:12:18.800Z,60
2019-04-26T04:13:21.134Z,61
2019-04-26T04:14:24.153Z,60
2019-04-26T04:15:26.477Z,61
2019-04-26T04:16:28.986Z,61
2019-04-26T04:17:31.602Z,61
2019-04-26T04:18:33.881Z,61
2019-04-26T04:19:42.081Z,60
2019-04-26T04:20:48.610Z,60
2019-04-26T04:21:51.471Z,60
2019-04-26T04:22:53.739Z,60
2019-04-26T04:23:55.980Z,60
2019-04-26T04:24:58.179Z,60
2019-04-26T04:26:01.018Z,61
2019-04-26T04:27:03.731Z,61
2019-04-26T04:28:06.902Z,61
2019-04-26T04:29:09.093Z,61
2019-04-26T04:30:11.847Z,60
2019-04-26T04:31:14.313Z,60
2019-04-26T04:32:16.479Z,60
2019-04-26T04:33:19.652Z,60
2019-04-26T04:34:22.280Z,60
2019-04-26T04:35:24.507Z,61
2019-04-26T04:36:27.069Z,61
2019-04-26T04:37:29.242Z,61
2019-04-26T04:38:31.719Z,61
2019-04-26T04:39:34.901Z,61
2019-04-26T04:40:37.752Z,60
2019-04-26T04:41:45.321Z,60
2019-04-26T04:42:53.345Z,59
2019-04-26T04:43:55.619Z,61
2019-04-26T04:44:57.809Z,61
2019-04-26T04:46:00.436Z,60
2019-04-26T04:47:03.043Z,59
2019-04-26T04:48:05.233Z,59
2019-04-26T04:49:07.834Z,59
2019-04-26T04:50:10.088Z,59
2019-04-26T04:51:13.010Z,60
2019-04-26T04:52:15.313Z,60
2019-04-26T04:53:18.135Z,61
2019-04-26T04:54:21.621Z,60
2019-04-26T04:55:23.869Z,61
2019-04-26T04:56:26.340Z,60
2019-04-26T04:57:29.328Z,60
2019-04-26T04:58:31.569Z,60
2019-04-26T04:59:33.757Z,60
2019-04-26T05:00:35.856Z,59
2019-04-26T05:01:38.112Z,60
2019-04-26T05:02:40.679Z,59
2019-04-26T05:03:45.529Z,59
2019-04-26T05:04:50.869Z,60
2019-04-26T05:06:08.587Z,60
2019-04-26T05:07:10.721Z,60
2019-04-26T05:08:12.891Z,59
2019-04-26T05:09:15.238Z,59
2019-04-26T05:10:17.406Z,59
2019-04-26T05:11:19.876Z,59
2019-04-26T05:12:22.467Z,59
2019-04-26T05:13:25.083Z,59
2019-04-26T05:14:27.388Z,59
2019-04-26T05:15:29.565Z,59
2019-04-26T05:16:34.395Z,59
2019-04-26T05:17:36.632Z,59
2019-04-26T05:18:38.793Z,59
2019-04-26T05:19:41.276Z,60
2019-04-26T05:20:45.875Z,59
2019-04-26T05:21:49.670Z,59
2019-04-26T05:22:53.036Z,59
2019-04-26T05:23:56.130Z,60
2019-04-26T05:24:58.428Z,60
2019-04-26T05:26:00.700Z,59
2019-04-26T05:27:02.947Z,59
2019-04-26T05:28:05.409Z,60
2019-04-26T05:29:07.944Z,59
2019-04-26T05:30:10.158Z,60
2019-04-26T05:31:12.534Z,60
2019-04-26T05:32:14.778Z,60
2019-04-26T05:33:17.552Z,60
2019-04-26T05:34:20.199Z,59
2019-04-26T05:35:22.674Z,59
2019-04-26T05:36:25.151Z,59
2019-04-26T05:37:27.423Z,59
2019-04-26T05:38:29.720Z,59
2019-04-26T05:39:31.935Z,59
2019-04-26T05:40:34.394Z,59
2019-04-26T05:41:36.557Z,59
2019-04-26T05:42:38.823Z,58
2019-04-26T05:43:40.979Z,58
2019-04-26T05:44:43.190Z,58
2019-04-26T05:45:45.839Z,58
2019-04-26T05:46:48.011Z,58
2019-04-26T05:48:12.528Z,58
2019-04-26T05:49:14.946Z,57
2019-04-26T05:50:17.108Z,58
2019-04-26T05:51:19.635Z,57
2019-04-26T05:52:21.776Z,57
2019-04-26T05:53:24.315Z,57
2019-04-26T05:54:26.481Z,58
2019-04-26T05:55:28.650Z,58
2019-04-26T05:56:30.908Z,58
2019-04-26T05:57:33.084Z,57
2019-04-26T05:58:35.811Z,57
2019-04-26T05:59:38.113Z,56
2019-04-26T06:00:40.636Z,57
2019-04-26T06:01:42.814Z,57
2019-04-26T06:02:45.068Z,57
2019-04-26T06:03:47.226Z,58
2019-04-26T06:04:49.524Z,57
2019-04-26T06:05:54.317Z,57
2019-04-26T06:06:58.040Z,57
2019-04-26T06:08:00.247Z,57
2019-04-26T06:09:02.628Z,56
2019-04-26T06:10:04.794Z,56
2019-04-26T06:11:07.026Z,56
2019-04-26T06:12:09.218Z,56
2019-04-26T06:13:11.660Z,56
2019-04-26T06:14:13.777Z,56
2019-04-26T06:15:15.952Z,56
2019-04-26T06:16:18.221Z,55
2019-04-26T06:17:20.416Z,55
2019-04-26T06:18:22.608Z,55
2019-04-26T06:19:24.863Z,55
2019-04-26T06:20:27.030Z,55
2019-04-26T06:21:29.221Z,55
2019-04-26T06:22:31.393Z,55
2019-04-26T06:23:33.554Z,55
2019-04-26T06:24:35.802Z,56
2019-04-26T06:25:38.063Z,55
2019-04-26T06:26:40.537Z,55
2019-04-26T06:27:42.800Z,55
2019-04-26T06:28:44.982Z,55
2019-04-26T06:29:47.310Z,55
2019-04-26T06:30:49.774Z,55
2019-04-26T06:31:51.980Z,54
2019-04-26T06:33:06.884Z,54
2019-04-26T06:34:09.020Z,55
2019-04-26T06:35:11.608Z,54
2019-04-26T06:36:14.309Z,54
2019-04-26T06:37:16.975Z,54
2019-04-26T06:38:19.213Z,55
2019-04-26T06:39:21.439Z,55
2019-04-26T06:40:23.660Z,54
2019-04-26T06:41:25.853Z,54
2019-04-26T06:42:28.022Z,53
2019-04-26T06:43:30.320Z,54
2019-04-26T06:44:32.526Z,53
2019-04-26T06:45:34.841Z,53
2019-04-26T06:46:37.100Z,53
2019-04-26T06:47:39.292Z,53
2019-04-26T06:48:41.492Z,53
2019-04-26T06:49:43.734Z,53
2019-04-26T06:50:45.922Z,53
2019-04-26T06:51:48.160Z,53
2019-04-26T06:52:50.333Z,53
2019-04-26T06:53:52.531Z,52
2019-04-26T06:54:57.941Z,52
2019-04-26T06:56:01.290Z,53
2019-04-26T06:57:16.255Z,52
2019-04-26T06:58:18.835Z,51
2019-04-26T06:59:21.294Z,52
2019-04-26T07:00:23.833Z,52
2019-04-26T07:01:25.940Z,51
2019-04-26T07:02:28.133Z,52
2019-04-26T07:03:30.423Z,51
2019-04-26T07:04:32.619Z,51
2019-04-26T07:05:35.036Z,50
2019-04-26T07:06:37.275Z,50
2019-04-26T07:07:39.587Z,50
2019-04-26T07:08:41.833Z,50
2019-04-26T07:09:44.351Z,51
2019-04-26T07:10:46.820Z,50
2019-04-26T07:11:49.151Z,50
2019-04-26T07:12:51.332Z,49
2019-04-26T07:13:53.605Z,49
2019-04-26T07:14:55.866Z,49
2019-04-26T07:15:58.049Z,49
2019-04-26T07:17:02.686Z,49
2019-04-26T07:18:06.569Z,49
2019-04-26T07:19:11.592Z,50
2019-04-26T07:20:14.381Z,49
2019-04-26T07:21:17.316Z,49
2019-04-26T07:22:19.788Z,50
2019-04-26T07:23:21.953Z,49
2019-04-26T07:24:24.143Z,50
2019-04-26T07:25:26.705Z,49
2019-04-26T07:26:28.892Z,49
2019-04-26T07:27:31.079Z,49
2019-04-26T07:28:33.269Z,49
2019-04-26T07:29:35.503Z,48
2019-04-26T07:30:37.761Z,49
2019-04-26T07:31:39.962Z,48
2019-04-26T07:32:42.136Z,48
2019-04-26T07:33:44.452Z,48
2019-04-26T07:34:46.652Z,48
2019-04-26T07:35:49.592Z,48
2019-04-26T07:36:52.227Z,47
2019-04-26T07:37:54.425Z,47
2019-04-26T07:39:20.771Z,47
2019-04-26T07:40:23.650Z,47
2019-04-26T07:41:25.824Z,47
2019-04-26T07:42:28.061Z,48
2019-04-26T07:43:30.339Z,47
2019-04-26T07:44:32.793Z,46
2019-04-26T07:45:35.056Z,46
2019-04-26T07:46:37.542Z,45
2019-04-26T07:47:40.089Z,45
2019-04-26T07:48:42.278Z,46
2019-04-26T07:49:44.474Z,45
2019-04-26T07:50:46.717Z,45
2019-04-26T07:51:48.992Z,45
2019-04-26T07:52:51.251Z,45
2019-04-26T07:53:53.515Z,45
2019-04-26T07:54:56.087Z,44
2019-04-26T07:55:58.273Z,44
2019-04-26T07:57:00.496Z,44
2019-04-26T07:58:07.115Z,43
2019-04-26T07:59:10.831Z,43
2019-04-26T08:00:13.906Z,43
2019-04-26T08:01:16.438Z,43
2019-04-26T08:02:18.669Z,43
2019-04-26T08:03:20.853Z,44
2019-04-26T08:04:23.054Z,44
2019-04-26T08:05:25.527Z,43
2019-04-26T08:06:27.704Z,43
2019-04-26T08:07:29.964Z,42
2019-04-26T08:08:32.150Z,42
2019-04-26T08:09:34.583Z,41
2019-04-26T08:10:36.852Z,42
2019-04-26T08:11:39.030Z,41
2019-04-26T08:12:41.314Z,40
2019-04-26T08:13:43.525Z,41
2019-04-26T08:14:45.770Z,41
2019-04-26T08:15:47.949Z,41
2019-04-26T08:16:50.424Z,41
2019-04-26T08:17:52.655Z,41
2019-04-26T08:18:55.077Z,39
2019-04-26T08:19:59.576Z,39
2019-04-26T08:21:18.614Z,39
2019-04-26T08:22:34.155Z,39
2019-04-26T08:23:44.232Z,40
2019-04-26T08:24:46.791Z,40
2019-04-26T08:25:48.966Z,39
2019-04-26T08:26:51.150Z,40
2019-04-26T08:27:53.422Z,39
2019-04-26T08:29:02.067Z,39
2019-04-26T08:30:23.248Z,39
2019-04-26T08:31:28.265Z,40
2019-04-26T08:32:34.089Z,40
2019-04-26T08:33:36.287Z,40
2019-04-26T08:34:38.415Z,41
2019-04-26T08:35:48.621Z,40
2019-04-26T08:37:03.769Z,41
2019-04-26T08:38:23.239Z,40
2019-04-26T08:39:52.333Z,41
2019-04-26T08:40:54.470Z,39
2019-04-26T08:41:56.642Z,39
2019-04-26T08:42:59.651Z,38
2019-04-26T08:44:11.218Z,38
2019-04-26T08:45:17.527Z,38
2019-04-26T08:46:21.336Z,39
2019-04-26T08:47:27.333Z,39
2019-04-26T08:48:30.554Z,38
2019-04-26T08:49:40.562Z,37
2019-04-26T08:50:47.865Z,38
2019-04-26T08:51:57.893Z,37
2019-04-26T08:53:00.076Z,37
2019-04-26T08:54:02.328Z,37
2019-04-26T08:55:04.520Z,37
2019-04-26T08:56:06.715Z,36
2019-04-26T08:57:09.084Z,35
2019-04-26T08:58:11.295Z,36
2019-04-26T08:59:13.566Z,37
2019-04-26T09:00:16.412Z,36
2019-04-26T09:01:18.988Z,35
2019-04-26T09:02:21.256Z,35
2019-04-26T09:03:23.425Z,35
2019-04-26T09:04:25.669Z,35
2019-04-26T09:05:28.135Z,35
2019-04-26T09:06:30.428Z,36
2019-04-26T09:07:32.762Z,37
2019-04-26T09:08:35.461Z,36
2019-04-26T09:09:41.229Z,35
2019-04-26T09:10:44.968Z,35
2019-04-26T09:12:03.819Z,37
2019-04-26T09:13:11.628Z,37
2019-04-26T09:14:14.083Z,35
2019-04-26T09:15:16.336Z,35
2019-04-26T09:16:19.453Z,34
2019-04-26T09:17:22.085Z,35
2019-04-26T09:18:24.334Z,35
2019-04-26T09:19:32.675Z,34
2019-04-26T09:20:44.553Z,34
2019-04-26T09:21:54.497Z,34
2019-04-26T09:23:06.013Z,35
2019-04-26T09:24:09.668Z,33
2019-04-26T09:25:11.937Z,33
2019-04-26T09:26:14.792Z,34
2019-04-26T09:27:22.916Z,33
2019-04-26T09:28:25.138Z,34
2019-04-26T09:29:33.159Z,34
2019-04-26T09:30:47.993Z,34
2019-04-26T09:31:55.804Z,34
2019-04-26T09:33:03.821Z,34
2019-04-26T09:34:11.954Z,34
2019-04-26T09:35:17.441Z,33
2019-04-26T09:36:19.633Z,34
2019-04-26T09:37:21.939Z,34
2019-04-26T09:38:24.229Z,34
2019-04-26T09:39:26.642Z,34
2019-04-26T09:40:28.845Z,33
2019-04-26T09:41:32.846Z,31
2019-04-26T09:42:41.272Z,32
2019-04-26T09:43:43.441Z,31
2019-04-26T09:44:45.621Z,32
2019-04-26T09:45:49.161Z,32
2019-04-26T09:46:55.463Z,31
2019-04-26T09:47:57.650Z,31
2019-04-26T09:49:08.526Z,32
2019-04-26T09:50:17.618Z,31
2019-04-26T09:51:19.830Z,31
2019-04-26T09:52:22.027Z,31
2019-04-26T09:53:24.236Z,31
2019-04-26T09:54:26.487Z,32
2019-04-26T09:55:36.690Z,31
2019-04-26T09:56:39.172Z,32
2019-04-26T09:57:41.314Z,32
2019-04-26T09:58:43.484Z,32
2019-04-26T09:59:45.756Z,32
2019-04-26T10:00:50.962Z,31
2019-04-26T10:02:00.778Z,32
2019-04-26T10:03:11.252Z,32
2019-04-26T10:04:13.452Z,32
2019-04-26T10:05:24.298Z,32
2019-04-26T10:06:31.463Z,31
2019-04-26T10:07:39.396Z,31
2019-04-26T10:08:48.481Z,31
2019-04-26T10:10:01.685Z,32
2019-04-26T10:11:11.359Z,33
2019-04-26T10:12:13.537Z,32
2019-04-26T10:13:16.078Z,32
2019-04-26T10:14:18.540Z,31
2019-04-26T10:15:28.668Z,32
2019-04-26T10:16:42.715Z,32
2019-04-26T10:17:51.998Z,31
2019-04-26T10:18:59.883Z,32
2019-04-26T10:20:02.451Z,31
2019-04-26T10:21:05.216Z,31
2019-04-26T10:22:08.144Z,31
2019-04-26T10:23:10.337Z,32
2019-04-26T10:24:12.546Z,32
2019-04-26T10:25:17.805Z,32
2019-04-26T10:26:30.456Z,31
2019-04-26T10:27:42.795Z,31
2019-04-26T10:28:52.630Z,31
2019-04-26T10:30:10.459Z,30
2019-04-26T10:31:19.091Z,31
2019-04-26T10:32:28.341Z,32
2019-04-26T10:33:38.270Z,31
2019-04-26T10:34:49.346Z,31
2019-04-26T10:35:58.722Z,31
2019-04-26T10:37:08.749Z,33
2019-04-26T10:38:10.949Z,32
2019-04-26T10:39:13.240Z,31
2019-04-26T10:40:15.429Z,31
2019-04-26T10:41:17.632Z,30
2019-04-26T10:42:19.877Z,29
2019-04-26T10:43:22.100Z,30
2019-04-26T10:44:24.424Z,29
2019-04-26T10:45:26.617Z,29
2019-04-26T10:46:30.328Z,30
2019-04-26T10:47:40.363Z,30
2019-04-26T10:48:51.774Z,31
2019-04-26T10:49:59.703Z,31
2019-04-26T10:51:09.392Z,31
2019-04-26T10:52:17.545Z,31
2019-04-26T10:53:19.764Z,32
2019-04-26T10:54:24.681Z,32
2019-04-26T10:55:26.882Z,31
2019-04-26T10:56:29.087Z,31
2019-04-26T10:57:31.318Z,31
2019-04-26T10:58:38.885Z,32
2019-04-26T10:59:46.249Z,31
2019-04-26T11:00:54.957Z,31
2019-04-26T11:01:57.136Z,31
2019-04-26T11:03:06.715Z,32
2019-04-26T11:04:08.912Z,32
2019-04-26T11:05:19.915Z,31
2019-04-26T11:06:29.543Z,31
2019-04-26T11:07:31.796Z,32
2019-04-26T11:08:34.015Z,32
2019-04-26T11:09:36.471Z,30
2019-04-26T11:10:50.060Z,32
2019-04-26T11:11:52.265Z,29
2019-04-26T11:12:54.513Z,30
2019-04-26T11:13:58.527Z,30
2019-04-26T11:15:00.880Z,30
2019-04-26T11:16:09.756Z,31
2019-04-26T11:17:18.468Z,30
2019-04-26T11:18:29.286Z,30
2019-04-26T11:19:37.185Z,29
2019-04-26T11:20:47.158Z,30
2019-04-26T11:21:56.430Z,30
2019-04-26T11:22:58.996Z,30
2019-04-26T11:24:01.244Z,31
2019-04-26T11:25:03.527Z,30
2019-04-26T11:26:06.154Z,31
2019-04-26T11:27:12.078Z,30
2019-04-26T11:28:23.194Z,30
2019-04-26T11:29:31.054Z,30
2019-04-26T11:30:33.503Z,30
2019-04-26T11:31:35.735Z,30
2019-04-26T11:32:39.101Z,29
2019-04-26T11:33:51.118Z,30
2019-04-26T11:35:01.056Z,29
2019-04-26T11:38:04.105Z,30
2019-04-26T11:39:08.850Z,32
2019-04-26T11:40:16.724Z,31
2019-04-26T11:41:18.923Z,33
2019-04-26T11:42:21.562Z,33
2019-04-26T11:43:23.767Z,33
2019-04-26T11:44:29.300Z,32
2019-04-26T11:45:31.537Z,33
2019-04-26T11:46:46.552Z,32
2019-04-26T11:47:57.375Z,33
2019-04-26T11:49:08.573Z,33
2019-04-26T11:50:18.662Z,32
2019-04-26T11:51:29.120Z,32
2019-04-26T11:52:37.863Z,32
2019-04-26T11:53:46.703Z,33
2019-04-26T11:54:56.767Z,34
2019-04-26T11:56:06.773Z,35
2019-04-26T11:57:14.295Z,34
2019-04-26T11:58:24.214Z,34
2019-04-26T11:59:32.277Z,34
2019-04-26T12:00:34.479Z,34
2019-04-26T12:01:42.447Z,33
2019-04-26T12:02:52.716Z,34
2019-04-26T12:04:01.459Z,33
2019-04-26T12:05:03.792Z,34
2019-04-26T12:06:05.973Z,34
2019-04-26T12:07:08.448Z,35
2019-04-26T12:08:10.645Z,34
2019-04-26T12:09:12.834Z,35
2019-04-26T12:10:15.107Z,35
2019-04-26T12:11:35.596Z,35
2019-04-26T12:12:37.779Z,36
2019-04-26T12:13:39.907Z,35
2019-04-26T12:14:42.122Z,35
2019-04-26T12:15:46.140Z,36
2019-04-26T12:17:02.006Z,37
2019-04-26T12:18:12.142Z,36
2019-04-26T12:19:20.380Z,36
2019-04-26T12:20:29.330Z,37
2019-04-26T12:21:35.819Z,35
2019-04-26T12:22:45.187Z,35
2019-04-26T12:23:47.391Z,34
2019-04-26T12:24:53.705Z,35
2019-04-26T12:25:55.957Z,35
2019-04-26T12:26:58.486Z,34
2019-04-26T12:28:08.069Z,34
2019-04-26T12:29:16.090Z,34
2019-04-26T12:30:18.270Z,34
2019-04-26T12:31:20.462Z,35
2019-04-26T12:32:22.688Z,34
2019-04-26T12:33:25.467Z,34
2019-04-26T12:34:29.302Z,34
2019-04-26T12:35:35.834Z,35
2019-04-26T12:36:38.027Z,35
2019-04-26T12:37:40.306Z,35
2019-04-26T12:38:42.612Z,35
2019-04-26T12:39:44.816Z,35
2019-04-26T12:40:48.450Z,35
2019-04-26T12:41:50.970Z,35
2019-04-26T12:42:53.238Z,35
2019-04-26T12:44:04.028Z,36
2019-04-26T12:45:06.241Z,36
2019-04-26T12:46:08.452Z,36
2019-04-26T12:47:10.629Z,36
2019-04-26T12:48:17.371Z,36
2019-04-26T12:49:25.846Z,35
2019-04-26T12:50:38.275Z,36
2019-04-26T12:51:52.310Z,36
2019-04-26T12:52:58.091Z,36
2019-04-26T12:54:09.951Z,36
2019-04-26T12:55:20.675Z,35
2019-04-26T12:56:32.768Z,36
2019-04-26T12:57:42.873Z,37
2019-04-26T12:58:51.879Z,37
2019-04-26T13:00:03.647Z,36
2019-04-26T13:01:13.959Z,36
2019-04-26T13:02:22.442Z,37
2019-04-26T13:03:30.907Z,37
2019-04-26T13:04:45.624Z,37
2019-04-26T13:05:59.696Z,36
2019-04-26T13:07:24.245Z,36
2019-04-26T13:08:26.682Z,37
2019-04-26T13:09:29.357Z,38
2019-04-26T13:10:37.487Z,38
2019-04-26T13:11:57.966Z,38
2019-04-26T13:13:00.146Z,39
2019-04-26T13:14:02.802Z,38
2019-04-26T13:15:05.047Z,37
2019-04-26T13:16:07.512Z,39
2019-04-26T13:17:10.065Z,38
2019-04-26T13:18:13.229Z,39
2019-04-26T13:19:21.573Z,38
2019-04-26T13:20:30.655Z,38
2019-04-26T13:21:39.345Z,38
2019-04-26T13:22:56.179Z,37
2019-04-26T13:24:06.878Z,38
2019-04-26T13:25:40.909Z,38
2019-04-26T13:26:43.516Z,38
2019-04-26T13:27:47.570Z,38
2019-04-26T13:28:59.324Z,38
2019-04-26T13:30:12.264Z,38
2019-04-26T13:31:14.445Z,38
2019-04-26T13:32:17.149Z,38
2019-04-26T13:33:29.165Z,39
2019-04-26T13:34:39.707Z,39
2019-04-26T13:36:03.902Z,38
2019-04-26T13:37:06.202Z,38
2019-04-26T13:38:10.765Z,38
2019-04-26T13:39:22.903Z,38
2019-04-26T13:40:30.962Z,38
2019-04-26T13:41:40.685Z,39
2019-04-26T13:42:42.930Z,39
2019-04-26T13:43:45.711Z,39
2019-04-26T13:44:47.960Z,39
2019-04-26T13:45:50.722Z,39
2019-04-26T13:46:53.294Z,40
2019-04-26T13:47:55.690Z,39
2019-04-26T13:48:57.921Z,38
2019-04-26T13:50:00.464Z,39
2019-04-26T13:51:06.514Z,39
2019-04-26T13:52:09.065Z,39
2019-04-26T13:53:11.282Z,39
2019-04-26T13:54:23.098Z,38
2019-04-26T13:55:33.950Z,38
2019-04-26T13:56:38.354Z,38
2019-04-26T13:57:46.646Z,38
2019-04-26T13:58:48.889Z,37
2019-04-26T13:59:51.499Z,37
2019-04-26T14:00:53.955Z,38
2019-04-26T14:01:56.875Z,38
2019-04-26T14:02:59.257Z,37
2019-04-26T14:04:09.810Z,38
2019-04-26T14:05:17.658Z,38
2019-04-26T14:06:20.115Z,38
2019-04-26T14:07:26.763Z,38
2019-04-26T14:08:28.969Z,39
2019-04-26T14:09:31.201Z,37
2019-04-26T14:10:33.394Z,38
2019-04-26T14:11:35.659Z,38
2019-04-26T14:12:37.848Z,38
2019-04-26T14:13:40.372Z,40
2019-04-26T14:14:42.635Z,39
2019-04-26T14:15:52.752Z,40
2019-04-26T14:16:57.750Z,40
2019-04-26T14:18:06.195Z,40
2019-04-26T14:19:17.765Z,41
2019-04-26T14:20:26.902Z,40
2019-04-26T14:21:35.318Z,40
2019-04-26T14:22:42.863Z,39
2019-04-26T14:23:51.570Z,40
2019-04-26T14:24:59.274Z,41
2019-04-26T14:26:08.222Z,40
2019-04-26T14:27:17.129Z,41
2019-04-26T14:28:25.776Z,41
2019-04-26T14:29:34.407Z,41
2019-04-26T14:30:43.800Z,40
2019-04-26T14:31:53.618Z,40
2019-04-26T14:32:59.552Z,39
2019-04-26T14:34:07.548Z,39
2019-04-26T14:35:17.930Z,39
2019-04-26T14:36:28.153Z,39
2019-04-26T14:37:30.344Z,40
2019-04-26T14:38:42.063Z,40
2019-04-26T14:40:17.763Z,40
2019-04-26T14:41:24.737Z,40
2019-04-26T14:42:49.623Z,40
2019-04-26T14:43:58.270Z,40
2019-04-26T14:45:07.851Z,41
2019-04-26T14:46:17.298Z,41
2019-04-26T14:47:19.824Z,42
2019-04-26T14:49:00.508Z,42
2019-04-26T14:50:15.395Z,42
2019-04-26T14:51:19.494Z,42
2019-04-26T14:52:29.891Z,41
2019-04-26T14:53:38.458Z,43
2019-04-26T14:54:48.035Z,43
2019-04-26T14:55:56.213Z,43
2019-04-26T14:57:30.974Z,43
2019-04-26T14:58:35.911Z,43
2019-04-26T14:59:47.583Z,43
2019-04-26T15:00:59.447Z,43
2019-04-26T15:02:14.149Z,43
2019-04-26T15:03:24.315Z,43
2019-04-26T15:04:29.845Z,43
2019-04-26T15:05:33.954Z,44
2019-04-26T15:06:36.121Z,43
2019-04-26T15:07:54.285Z,43
2019-04-26T15:08:56.418Z,43
2019-04-26T15:09:58.930Z,43
2019-04-26T15:11:05.082Z,43
2019-04-26T15:12:16.690Z,45
2019-04-26T15:13:24.212Z,45
2019-04-26T15:14:26.707Z,44
2019-04-26T15:15:35.328Z,43
2019-04-26T15:16:37.515Z,43
2019-04-26T15:17:40.378Z,43
2019-04-26T15:18:44.308Z,45
2019-04-26T15:19:48.205Z,44
2019-04-26T15:20:59.090Z,45
2019-04-26T15:22:12.715Z,45
2019-04-26T15:23:14.857Z,45
2019-04-26T15:24:17.022Z,44
2019-04-26T15:25:19.539Z,45
2019-04-26T15:26:33.423Z,46
2019-04-26T15:27:39.431Z,46
2019-04-26T15:28:52.288Z,46